createdAt,value
2023-08-04T00:00:55.234Z,100.00
2023-08-04T00:03:23.283Z,100.00
2023-08-04T00:05:51.189Z,100.00
2023-08-04T00:08:19.099Z,100.00
2023-08-04T00:10:48.535Z,100.00
2023-08-04T00:13:16.482Z,100.00
2023-08-04T00:15:44.393Z,100.00
2023-08-04T00:18:12.368Z,100.00
2023-08-04T00:20:40.325Z,100.00
2023-08-04T00:23:08.234Z,100.00
2023-08-04T00:25:36.158Z,100.00
2023-08-04T00:28:05.851Z,100.00
2023-08-04T00:30:33.726Z,100.00
2023-08-04T00:33:02.538Z,100.00
2023-08-04T00:35:30.558Z,100.00
2023-08-04T00:37:58.570Z,100.00
2023-08-04T00:40:26.554Z,100.00
2023-08-04T00:42:54.471Z,100.00
2023-08-04T00:45:24.225Z,100.00
2023-08-04T00:47:53.327Z,100.00
2023-08-04T00:50:21.715Z,100.00
2023-08-04T00:52:50.866Z,100.00
2023-08-04T00:55:19.573Z,100.00
2023-08-04T00:57:49.071Z,100.00
2023-08-04T01:00:17.043Z,100.00
2023-08-04T01:02:46.397Z,100.00
2023-08-04T01:05:14.419Z,100.00
2023-08-04T01:07:46.173Z,100.00
2023-08-04T01:10:19.197Z,100.00
2023-08-04T01:12:52.892Z,100.00
2023-08-04T01:15:24.512Z,100.00
2023-08-04T01:17:54.030Z,100.00
2023-08-04T01:20:22.064Z,100.00
2023-08-04T01:22:51.471Z,100.00
2023-08-04T01:25:19.791Z,100.00
2023-08-04T01:27:51.815Z,100.00
2023-08-04T01:30:21.795Z,100.00
2023-08-04T01:32:50.012Z,100.00
2023-08-04T01:35:18.642Z,100.00
2023-08-04T01:37:46.714Z,100.00
2023-08-04T01:40:17.104Z,100.00
2023-08-04T01:42:45.056Z,100.00
2023-08-04T01:45:12.996Z,100.00
2023-08-04T01:50:23.405Z,100.00
2023-08-04T01:52:51.436Z,100.00
2023-08-04T01:55:20.841Z,100.00
2023-08-04T01:57:48.733Z,100.00
2023-08-04T02:00:17.558Z,100.00
2023-08-04T02:02:45.492Z,100.00
2023-08-04T02:05:15.014Z,100.00
2023-08-04T02:07:42.974Z,100.00
2023-08-04T02:10:11.291Z,100.00
2023-08-04T02:12:40.568Z,100.00
2023-08-04T02:15:09.342Z,100.00
2023-08-04T02:17:37.725Z,100.00
2023-08-04T02:20:07.231Z,100.00
2023-08-04T02:22:35.106Z,100.00
2023-08-04T02:25:03.004Z,100.00
2023-08-04T02:27:31.982Z,100.00
2023-08-04T02:30:01.283Z,100.00
2023-08-04T02:32:32.171Z,100.00
2023-08-04T02:35:00.046Z,100.00
2023-08-04T02:37:27.940Z,100.00
2023-08-04T02:39:56.101Z,100.00
2023-08-04T02:42:24.113Z,100.00
2023-08-04T02:44:55.028Z,100.00
2023-08-04T02:47:24.447Z,100.00
2023-08-04T02:49:52.408Z,100.00
2023-08-04T02:52:21.314Z,100.00
2023-08-04T02:54:49.345Z,100.00
2023-08-04T02:57:17.325Z,100.00
2023-08-04T02:59:45.299Z,100.00
2023-08-04T03:02:13.308Z,100.00
2023-08-04T03:04:42.534Z,100.00
2023-08-04T03:07:10.451Z,100.00
2023-08-04T03:09:38.321Z,100.00
2023-08-04T03:12:06.961Z,100.00
2023-08-04T03:14:34.880Z,100.00
2023-08-04T03:17:02.825Z,100.00
2023-08-04T03:19:30.773Z,100.00
2023-08-04T03:22:00.006Z,100.00
2023-08-04T03:24:27.950Z,100.00
2023-08-04T03:26:55.876Z,100.00
2023-08-04T03:29:23.818Z,100.00
2023-08-04T03:31:51.797Z,100.00
2023-08-04T03:34:19.770Z,100.00
2023-08-04T03:36:47.652Z,100.00
2023-08-04T03:39:16.921Z,100.00
2023-08-04T03:41:45.233Z,100.00
2023-08-04T03:44:13.507Z,100.00
2023-08-04T03:46:41.442Z,100.00
2023-08-04T03:49:09.363Z,100.00
2023-08-04T03:51:37.254Z,100.00
2023-08-04T03:54:06.135Z,100.00
2023-08-04T03:56:35.410Z,100.00
2023-08-04T03:59:06.342Z,100.00
2023-08-04T04:01:34.262Z,100.00
2023-08-04T04:04:02.199Z,100.00
2023-08-04T04:06:30.075Z,100.00
2023-08-04T04:08:58.018Z,100.00
2023-08-04T04:11:26.069Z,100.00
2023-08-04T04:13:55.364Z,100.00
2023-08-04T04:16:23.451Z,100.00
2023-08-04T04:18:51.349Z,100.00
2023-08-04T04:21:19.277Z,100.00
2023-08-04T04:23:47.160Z,100.00
2023-08-04T04:26:15.085Z,100.00
2023-08-04T04:28:43.029Z,100.00
2023-08-04T04:31:12.312Z,100.00
2023-08-04T04:33:40.249Z,100.00
2023-08-04T04:36:08.229Z,100.00
2023-08-04T04:38:36.135Z,100.00
2023-08-04T04:41:04.553Z,100.00
2023-08-04T04:43:32.785Z,100.00
2023-08-04T04:46:00.916Z,100.00
2023-08-04T04:48:30.293Z,100.00
2023-08-04T04:50:58.139Z,100.00
2023-08-04T04:53:26.157Z,100.00
2023-08-04T04:55:54.077Z,100.00
2023-08-04T04:58:21.952Z,100.00
2023-08-04T05:00:49.803Z,100.00
2023-08-04T05:03:17.704Z,100.00
2023-08-04T05:05:47.043Z,100.00
2023-08-04T05:08:14.933Z,100.00
2023-08-04T05:10:42.993Z,99.04
2023-08-04T05:13:10.832Z,97.71
2023-08-04T05:15:38.750Z,97.63
2023-08-04T05:18:06.651Z,95.95
2023-08-04T05:20:34.524Z,95.39
2023-08-04T05:23:03.894Z,96.54
2023-08-04T05:25:31.838Z,97.51
2023-08-04T05:28:20.697Z,97.74
2023-08-04T05:30:48.717Z,96.13
2023-08-04T05:33:16.685Z,95.88
2023-08-04T05:35:48.281Z,96.71
2023-08-04T05:38:17.571Z,96.19
2023-08-04T05:40:46.385Z,96.85
2023-08-04T05:43:15.074Z,95.54
2023-08-04T05:45:44.894Z,95.56
2023-08-04T05:48:13.177Z,95.78
2023-08-04T05:50:41.186Z,95.49
2023-08-04T05:53:09.175Z,94.83
2023-08-04T05:55:38.622Z,95.07
2023-08-04T05:58:06.636Z,94.10
2023-08-04T06:00:36.608Z,93.93
2023-08-04T06:03:05.425Z,93.54
2023-08-04T06:05:33.540Z,93.71
2023-08-04T06:08:02.085Z,92.68
2023-08-04T06:10:29.968Z,92.38
2023-08-04T06:12:59.236Z,89.62
2023-08-04T06:15:27.183Z,89.55
2023-08-04T06:17:55.149Z,89.50
2023-08-04T06:20:24.589Z,88.99
2023-08-04T06:22:52.476Z,87.49
2023-08-04T06:25:20.375Z,87.49
2023-08-04T06:27:48.276Z,87.89
2023-08-04T06:30:17.857Z,87.77
2023-08-04T06:32:47.286Z,87.31
2023-08-04T06:35:15.337Z,86.20
2023-08-04T06:37:43.441Z,85.96
2023-08-04T06:40:12.392Z,84.87
2023-08-04T06:42:40.338Z,85.55
2023-08-04T06:45:09.410Z,86.00
2023-08-04T06:47:39.640Z,87.85
2023-08-04T06:50:08.718Z,88.70
2023-08-04T06:52:36.902Z,89.17
2023-08-04T06:55:06.090Z,88.53
2023-08-04T06:57:34.233Z,88.53
2023-08-04T07:00:02.127Z,87.68
2023-08-04T07:02:30.069Z,85.33
2023-08-04T07:04:59.408Z,87.32
2023-08-04T07:07:27.506Z,87.06
2023-08-04T07:09:55.452Z,85.04
2023-08-04T07:12:23.408Z,83.45
2023-08-04T07:14:51.331Z,83.86
2023-08-04T07:17:19.147Z,84.21
2023-08-04T07:19:48.889Z,84.34
2023-08-04T07:22:18.221Z,83.87
2023-08-04T07:24:48.573Z,83.58
2023-08-04T07:27:16.458Z,81.52
2023-08-04T07:29:44.345Z,80.27
2023-08-04T07:32:12.236Z,80.63
2023-08-04T07:34:40.177Z,79.83
2023-08-04T07:37:08.080Z,79.88
2023-08-04T07:39:37.249Z,81.38
2023-08-04T07:42:06.030Z,82.40
2023-08-04T07:44:35.348Z,82.31
2023-08-04T07:47:03.316Z,83.83
2023-08-04T07:49:31.532Z,85.26
2023-08-04T07:51:59.440Z,84.37
2023-08-04T07:54:27.299Z,81.07
2023-08-04T07:56:56.776Z,79.17
2023-08-04T07:59:24.671Z,71.85
2023-08-04T08:01:52.651Z,65.91
2023-08-04T08:04:20.662Z,61.18
2023-08-04T08:06:48.971Z,54.73
2023-08-04T08:09:16.927Z,49.10
2023-08-04T08:11:44.859Z,49.89
2023-08-04T08:14:14.285Z,52.96
2023-08-04T08:16:42.285Z,57.76
2023-08-04T08:19:11.078Z,60.58
2023-08-04T08:21:38.947Z,63.21
2023-08-04T08:24:07.066Z,62.83
2023-08-04T08:26:34.962Z,64.36
2023-08-04T08:29:03.506Z,63.09
2023-08-04T08:31:32.817Z,61.10
2023-08-04T08:34:00.708Z,58.78
2023-08-04T08:36:28.714Z,56.88
2023-08-04T08:38:56.673Z,58.08
2023-08-04T08:41:24.777Z,55.52
2023-08-04T08:43:52.829Z,49.43
2023-08-04T08:46:20.915Z,49.86
2023-08-04T08:48:52.139Z,51.47
2023-08-04T08:51:22.408Z,55.12
2023-08-04T08:53:50.504Z,61.20
2023-08-04T08:56:18.960Z,64.63
2023-08-04T08:58:46.988Z,66.74
2023-08-04T09:01:15.110Z,66.94
2023-08-04T09:03:43.372Z,67.30
2023-08-04T09:06:12.740Z,67.88
2023-08-04T09:08:40.773Z,69.20
2023-08-04T09:11:09.113Z,68.66
2023-08-04T09:13:41.457Z,68.25
2023-08-04T09:16:13.104Z,68.21
2023-08-04T09:18:41.858Z,65.85
2023-08-04T09:21:13.731Z,63.76
2023-08-04T09:23:45.276Z,62.73
2023-08-04T09:26:13.203Z,57.16
2023-08-04T09:28:41.112Z,52.90
2023-08-04T09:31:10.265Z,54.66
2023-08-04T09:33:39.513Z,57.95
2023-08-04T09:36:08.866Z,54.63
2023-08-04T09:38:39.430Z,54.89
2023-08-04T09:41:08.400Z,53.68
2023-08-04T09:43:36.446Z,52.54
2023-08-04T09:46:06.505Z,52.93
2023-08-04T09:48:35.103Z,55.50
2023-08-04T09:51:07.530Z,60.56
2023-08-04T09:53:55.386Z,59.80
2023-08-04T09:56:27.266Z,60.10
2023-08-04T09:58:55.257Z,60.25
2023-08-04T10:01:23.244Z,55.61
2023-08-04T10:03:55.130Z,50.71
2023-08-04T10:06:23.477Z,44.27
2023-08-04T10:08:56.035Z,41.57
2023-08-04T10:11:24.406Z,42.97
2023-08-04T10:13:53.860Z,45.72
2023-08-04T10:16:24.501Z,48.97
2023-08-04T10:18:53.912Z,51.67
2023-08-04T10:21:24.995Z,54.53
2023-08-04T10:23:54.790Z,57.26
2023-08-04T10:26:22.801Z,59.82
2023-08-04T10:29:04.110Z,62.08
2023-08-04T10:31:46.098Z,65.01
2023-08-04T10:34:18.945Z,66.54
2023-08-04T10:37:05.519Z,69.54
2023-08-04T10:39:36.541Z,71.78
2023-08-04T10:42:08.310Z,73.44
2023-08-04T10:44:53.570Z,72.34
2023-08-04T10:47:36.213Z,71.01
2023-08-04T10:50:05.537Z,66.63
2023-08-04T10:52:35.427Z,57.73
2023-08-04T10:55:07.723Z,52.23
2023-08-04T10:57:37.749Z,47.84
2023-08-04T11:00:07.715Z,44.76
2023-08-04T11:02:36.484Z,42.96
2023-08-04T11:05:06.275Z,42.63
2023-08-04T11:07:34.656Z,43.90
2023-08-04T11:10:07.097Z,47.13
2023-08-04T11:12:37.776Z,50.15
2023-08-04T11:15:06.851Z,48.02
2023-08-04T11:17:34.984Z,48.86
2023-08-04T11:20:03.997Z,48.34
2023-08-04T11:22:33.021Z,51.87
2023-08-04T11:25:00.993Z,53.56
2023-08-04T11:27:30.333Z,51.66
2023-08-04T11:29:58.254Z,47.92
2023-08-04T11:32:26.625Z,48.26
2023-08-04T11:34:57.016Z,47.30
2023-08-04T11:37:25.583Z,43.60
2023-08-04T11:39:54.906Z,42.27
2023-08-04T11:42:24.811Z,43.04
2023-08-04T11:44:54.094Z,44.98
2023-08-04T11:47:22.048Z,45.99
2023-08-04T11:49:50.263Z,45.77
2023-08-04T11:52:18.265Z,43.70
2023-08-04T11:54:53.349Z,45.72
2023-08-04T11:57:22.098Z,47.56
2023-08-04T11:59:50.426Z,46.96
2023-08-04T12:02:19.981Z,47.23
2023-08-04T12:04:48.384Z,49.12
2023-08-04T12:07:17.064Z,51.87
2023-08-04T12:09:47.139Z,52.90
2023-08-04T12:12:15.005Z,53.64
2023-08-04T12:15:00.162Z,53.38
2023-08-04T12:17:38.881Z,53.41
2023-08-04T12:20:08.503Z,53.93
2023-08-04T12:22:37.471Z,54.36
2023-08-04T12:25:06.507Z,55.82
2023-08-04T12:27:34.971Z,55.12
2023-08-04T12:30:03.316Z,55.53
2023-08-04T12:32:32.890Z,54.52
2023-08-04T12:35:02.388Z,52.66
2023-08-04T12:37:30.439Z,53.21
2023-08-04T12:39:58.380Z,52.59
2023-08-04T12:42:26.366Z,49.71
2023-08-04T12:44:54.273Z,48.94
2023-08-04T12:47:22.730Z,49.80
2023-08-04T12:49:51.040Z,51.33
2023-08-04T12:52:21.019Z,50.30
2023-08-04T12:54:49.018Z,51.25
2023-08-04T12:57:16.985Z,50.37
2023-08-04T12:59:44.904Z,52.92
2023-08-04T13:02:12.854Z,53.97
2023-08-04T13:04:40.920Z,51.78
2023-08-04T13:07:08.991Z,55.86
2023-08-04T13:09:38.277Z,54.95
2023-08-04T13:12:06.736Z,55.31
2023-08-04T13:14:34.615Z,56.98
2023-08-04T13:17:02.594Z,58.29
2023-08-04T13:19:30.540Z,58.64
2023-08-04T13:21:58.522Z,57.83
2023-08-04T13:24:26.417Z,56.73
2023-08-04T13:26:55.713Z,54.35
2023-08-04T13:29:23.835Z,54.16
2023-08-04T13:31:52.098Z,51.90
2023-08-04T13:34:20.311Z,51.37
2023-08-04T13:36:48.251Z,51.78
2023-08-04T13:39:16.145Z,54.67
2023-08-04T13:41:44.001Z,56.55
2023-08-04T13:44:13.351Z,58.18
2023-08-04T13:46:41.490Z,59.58
2023-08-04T13:49:09.499Z,60.41
2023-08-04T13:51:37.406Z,61.37
2023-08-04T13:54:05.520Z,60.44
2023-08-04T13:56:34.655Z,58.27
2023-08-04T13:59:02.604Z,56.37
2023-08-04T14:01:32.261Z,54.55
2023-08-04T14:04:00.311Z,52.31
2023-08-04T14:06:29.489Z,52.99
2023-08-04T14:08:57.371Z,53.18
2023-08-04T14:11:25.261Z,52.82
2023-08-04T14:13:53.228Z,51.53
2023-08-04T14:16:21.205Z,52.27
2023-08-04T14:18:50.500Z,51.56
2023-08-04T14:21:18.556Z,50.79
2023-08-04T14:23:46.390Z,50.59
2023-08-04T14:26:14.417Z,49.59
2023-08-04T14:28:42.390Z,49.92
2023-08-04T14:31:10.389Z,50.29
2023-08-04T14:33:38.383Z,52.37
2023-08-04T14:36:07.853Z,52.38
2023-08-04T14:38:35.931Z,51.77
2023-08-04T14:41:03.888Z,52.88
2023-08-04T14:43:31.776Z,54.63
2023-08-04T14:45:59.741Z,54.47
2023-08-04T14:48:27.692Z,54.54
2023-08-04T14:50:55.748Z,52.62
2023-08-04T14:53:25.375Z,52.70
2023-08-04T14:55:53.339Z,51.46
2023-08-04T14:58:21.358Z,50.81
2023-08-04T15:00:51.242Z,51.10
2023-08-04T15:03:20.691Z,50.49
2023-08-04T15:05:48.728Z,49.73
2023-08-04T15:08:16.655Z,48.71
2023-08-04T15:10:46.030Z,47.82
2023-08-04T15:13:13.924Z,47.67
2023-08-04T15:15:41.892Z,48.13
2023-08-04T15:18:09.961Z,48.58
2023-08-04T15:20:38.739Z,49.55
2023-08-04T15:23:06.655Z,46.57
2023-08-04T15:25:34.596Z,45.44
2023-08-04T15:28:03.897Z,42.64
2023-08-04T15:30:35.425Z,39.91
2023-08-04T15:33:03.393Z,40.41
2023-08-04T15:35:31.445Z,38.51
2023-08-04T15:38:00.259Z,36.85
2023-08-04T15:40:28.293Z,35.54
2023-08-04T15:42:56.239Z,37.24
2023-08-04T15:45:25.631Z,38.15
2023-08-04T15:47:53.703Z,38.51
2023-08-04T15:50:21.676Z,36.57
2023-08-04T15:52:49.569Z,37.82
2023-08-04T15:55:17.525Z,38.53
2023-08-04T15:57:45.419Z,39.49
2023-08-04T16:00:14.528Z,39.39
2023-08-04T16:02:43.807Z,39.28
2023-08-04T16:05:11.740Z,37.88
2023-08-04T16:07:39.633Z,38.81
2023-08-04T16:10:08.804Z,39.77
2023-08-04T16:12:36.781Z,39.88
2023-08-04T16:15:05.292Z,39.24
2023-08-04T16:17:34.493Z,40.30
2023-08-04T16:20:04.433Z,41.43
2023-08-04T16:22:32.316Z,42.42
2023-08-04T16:25:00.232Z,43.41
2023-08-04T16:27:28.050Z,42.57
2023-08-04T16:29:55.924Z,43.33
2023-08-04T16:32:23.875Z,43.71
2023-08-04T16:34:51.740Z,43.82
2023-08-04T16:37:21.154Z,44.64
2023-08-04T16:39:49.343Z,45.14
2023-08-04T16:42:17.220Z,44.08
2023-08-04T16:44:45.111Z,43.08
2023-08-04T16:47:13.013Z,43.03
2023-08-04T16:49:40.828Z,42.38
2023-08-04T16:52:09.071Z,41.69
2023-08-04T16:54:38.283Z,41.63
2023-08-04T16:57:06.866Z,40.82
2023-08-04T16:59:34.815Z,41.17
2023-08-04T17:02:02.784Z,41.78
2023-08-04T17:04:32.779Z,42.24
2023-08-04T17:07:00.717Z,43.41
2023-08-04T17:09:28.575Z,44.10
2023-08-04T17:11:57.868Z,45.30
2023-08-04T17:14:25.817Z,46.27
2023-08-04T17:16:53.754Z,46.04
2023-08-04T17:19:21.662Z,46.15
2023-08-04T17:21:49.669Z,45.02
2023-08-04T17:24:17.590Z,44.89
2023-08-04T17:26:45.500Z,44.32
2023-08-04T17:29:14.735Z,44.93
2023-08-04T17:31:45.594Z,45.30
2023-08-04T17:34:13.797Z,46.17
2023-08-04T17:36:42.269Z,45.82
2023-08-04T17:39:10.246Z,46.30
2023-08-04T17:41:38.187Z,46.20
2023-08-04T17:44:06.854Z,47.16
2023-08-04T17:46:36.865Z,47.22
2023-08-04T17:49:04.862Z,47.27
2023-08-04T17:51:32.940Z,47.11
2023-08-04T17:54:00.788Z,47.15
2023-08-04T17:56:28.676Z,47.59
2023-08-04T17:58:56.620Z,48.05
2023-08-04T18:01:24.636Z,47.80
2023-08-04T18:03:54.085Z,48.55
2023-08-04T18:06:22.024Z,48.72
2023-08-04T18:08:50.401Z,48.95
2023-08-04T18:11:18.314Z,49.45
2023-08-04T18:13:46.462Z,50.00
2023-08-04T18:16:14.789Z,49.64
2023-08-04T18:18:42.726Z,49.20
2023-08-04T18:21:12.703Z,50.45
2023-08-04T18:23:40.603Z,50.91
2023-08-04T18:26:09.826Z,50.87
2023-08-04T18:28:37.735Z,50.42
2023-08-04T18:31:05.683Z,51.28
2023-08-04T18:33:33.567Z,51.42
2023-08-04T18:36:02.077Z,52.21
2023-08-04T18:38:31.476Z,53.14
2023-08-04T18:41:03.924Z,53.28
2023-08-04T18:43:31.905Z,53.30
2023-08-04T18:45:59.836Z,54.06
2023-08-04T18:48:27.796Z,53.79
2023-08-04T18:50:55.722Z,54.09
2023-08-04T18:53:23.765Z,54.79
2023-08-04T18:55:53.148Z,54.23
2023-08-04T18:58:21.009Z,54.87
2023-08-04T19:00:49.097Z,55.41
2023-08-04T19:03:17.261Z,56.07
2023-08-04T19:05:45.326Z,56.44
2023-08-04T19:08:13.318Z,56.09
2023-08-04T19:10:41.405Z,57.23
2023-08-04T19:13:10.693Z,57.55
2023-08-04T19:15:38.704Z,57.65
2023-08-04T19:18:06.742Z,57.88
2023-08-04T19:20:34.720Z,57.85
2023-08-04T19:23:02.697Z,58.15
2023-08-04T19:25:30.698Z,58.57
2023-08-04T19:27:58.644Z,60.05
2023-08-04T19:30:28.021Z,60.33
2023-08-04T19:32:58.345Z,59.50
2023-08-04T19:35:27.417Z,59.67
2023-08-04T19:37:55.416Z,60.34
2023-08-04T19:40:23.336Z,60.53
2023-08-04T19:42:51.359Z,61.29
2023-08-04T19:45:19.411Z,62.14
2023-08-04T19:47:48.849Z,62.07
2023-08-04T19:50:16.987Z,62.74
2023-08-04T19:52:44.993Z,63.40
2023-08-04T19:55:18.317Z,64.27
2023-08-04T19:57:49.482Z,63.64
2023-08-04T20:00:17.751Z,63.97
2023-08-04T20:02:45.833Z,64.38
2023-08-04T20:05:15.330Z,65.46
2023-08-04T20:07:43.312Z,65.43
2023-08-04T20:10:12.035Z,65.63
2023-08-04T20:12:39.985Z,65.60
2023-08-04T20:15:08.790Z,66.44
2023-08-04T20:17:36.837Z,66.64
2023-08-04T20:20:05.899Z,67.02
2023-08-04T20:22:35.200Z,67.58
2023-08-04T20:25:04.008Z,68.15
2023-08-04T20:27:31.830Z,69.55
2023-08-04T20:29:59.803Z,70.05
2023-08-04T20:32:27.814Z,70.17
2023-08-04T20:34:55.919Z,70.46
2023-08-04T20:37:24.036Z,71.09
2023-08-04T20:39:54.697Z,71.42
2023-08-04T20:42:22.776Z,71.73
2023-08-04T20:44:51.576Z,72.18
2023-08-04T20:47:19.595Z,72.73
2023-08-04T20:49:47.598Z,73.31
2023-08-04T20:52:16.709Z,73.61
2023-08-04T20:54:45.810Z,74.04
2023-08-04T20:57:15.130Z,74.19
2023-08-04T20:59:43.050Z,74.84
2023-08-04T21:02:11.013Z,75.06
2023-08-04T21:04:38.988Z,75.32
2023-08-04T21:07:09.078Z,75.69
2023-08-04T21:09:39.152Z,76.14
2023-08-04T21:12:07.698Z,76.58
2023-08-04T21:14:37.001Z,76.62
2023-08-04T21:17:05.270Z,76.92
2023-08-04T21:19:33.286Z,76.70
2023-08-04T21:22:01.270Z,76.60
2023-08-04T21:24:29.274Z,76.90
2023-08-04T21:26:57.344Z,77.19
2023-08-04T21:29:25.467Z,77.13
2023-08-04T21:31:54.829Z,77.43
2023-08-04T21:34:22.806Z,77.18
2023-08-04T21:36:51.085Z,74.80
2023-08-04T21:39:19.274Z,75.27
2023-08-04T21:41:47.178Z,74.67
2023-08-04T21:44:15.420Z,74.68
2023-08-04T21:46:43.712Z,74.49
2023-08-04T21:49:17.598Z,75.23
2023-08-04T21:51:46.042Z,75.24
2023-08-04T21:54:14.364Z,75.54
2023-08-04T21:56:42.342Z,75.85
2023-08-04T21:59:11.238Z,75.85
2023-08-04T22:01:39.393Z,76.50
2023-08-04T22:04:07.381Z,75.91
2023-08-04T22:06:36.682Z,76.42
2023-08-04T22:09:04.684Z,76.88
2023-08-04T22:11:32.569Z,77.87
2023-08-04T22:14:00.782Z,77.62
2023-08-04T22:16:28.967Z,78.09
2023-08-04T22:18:56.965Z,78.73
2023-08-04T22:21:24.992Z,79.13
2023-08-04T22:23:54.319Z,79.50
2023-08-04T22:26:22.288Z,80.01
2023-08-04T22:28:50.246Z,79.99
2023-08-04T22:31:18.242Z,80.58
2023-08-04T22:33:46.134Z,80.73
2023-08-04T22:36:13.996Z,81.12
2023-08-04T22:38:41.910Z,81.10
2023-08-04T22:41:11.190Z,81.45
2023-08-04T22:43:39.148Z,81.72
2023-08-04T22:46:07.122Z,82.06
2023-08-04T22:48:35.076Z,81.87
2023-08-04T22:51:03.005Z,82.33
2023-08-04T22:53:30.938Z,81.71
2023-08-04T22:56:00.618Z,82.42
2023-08-04T22:58:29.887Z,82.26
2023-08-04T23:00:58.075Z,82.35
2023-08-04T23:03:26.038Z,82.74
2023-08-04T23:05:54.040Z,82.36
2023-08-04T23:08:21.942Z,82.64
2023-08-04T23:10:56.159Z,82.97
2023-08-04T23:13:24.317Z,83.83
2023-08-04T23:15:53.721Z,83.19
2023-08-04T23:18:21.685Z,83.04
2023-08-04T23:20:49.965Z,83.32
2023-08-04T23:23:18.296Z,83.66
2023-08-04T23:25:46.768Z,83.63
2023-08-04T23:28:15.037Z,83.52
2023-08-04T23:30:46.869Z,83.76
2023-08-04T23:33:17.232Z,83.63
2023-08-04T23:35:52.411Z,83.12
2023-08-04T23:38:20.474Z,83.96
2023-08-04T23:40:48.507Z,84.27
2023-08-04T23:43:16.598Z,84.05
2023-08-04T23:45:44.515Z,84.44
2023-08-04T23:48:12.450Z,84.63
2023-08-04T23:50:41.712Z,84.43
2023-08-04T23:53:09.648Z,84.60
2023-08-04T23:55:37.494Z,84.65
2023-08-04T23:58:05.457Z,84.90
